Time;durP1;ratioP1;P1;durP2;ratioP2;P2;SDS_P1;SDS_P2;PMS_P1;PMS_P2;Temp;Humidity;BMP_temperature;BMP_pressure;BME280_temperature;BME280_humidity;BME280_pressure;Samples;Min_cycle;Max_cycle;Signal;HPM_P1;HPM_P2
2024/03/03 00:00:14;;;;;;;20.55;16.42;;;;;;;;;;10370966;28;20084;-67
2024/03/03 00:05:14;;;;;;;24.60;16.88;;;;;;;;;;10375154;28;20173;-65
2024/03/03 00:10:13;;;;;;;18.85;16.02;;;;;;;;;;10359664;28;20082;-67
2024/03/03 00:15:11;;;;;;;28.75;17.50;;;;;;;;;;10374034;28;20069;-67
2024/03/03 00:20:10;;;;;;;25.10;17.60;;;;;;;;;;10372963;28;20076;-65
2024/03/03 00:25:10;;;;;;;24.17;17.67;;;;;;;;;;10374994;28;20475;-66
2024/03/03 00:30:09;;;;;;;26.02;16.98;;;;;;;;;;10371848;28;20084;-67
2024/03/03 00:35:09;;;;;;;19.10;14.23;;;;;;;;;;10372137;28;20039;-65
2024/03/03 00:40:08;;;;;;;20.13;12.65;;;;;;;;;;10349172;28;20044;-66
2024/03/03 00:45:08;;;;;;;16.80;12.73;;;;;;;;;;10372144;28;20072;-66
2024/03/03 00:50:08;;;;;;;15.75;12.15;;;;;;;;;;10367449;28;20070;-65
2024/03/03 00:55:09;;;;;;;17.08;12.20;;;;;;;;;;10377437;28;20068;-66
2024/03/03 01:00:10;;;;;;;16.58;10.73;;;;;;;;;;10381914;28;20079;-67
2024/03/03 01:05:09;;;;;;;19.67;11.35;;;;;;;;;;10360903;28;20076;-66
2024/03/03 01:10:07;;;;;;;14.63;11.40;;;;;;;;;;10359033;28;20079;-67
2024/03/03 01:15:06;;;;;;;20.38;11.57;;;;;;;;;;10379452;28;20087;-66
2024/03/03 01:20:07;;;;;;;17.38;11.48;;;;;;;;;;10380368;28;20524;-66
2024/03/03 01:25:06;;;;;;;17.52;11.23;;;;;;;;;;10379397;28;20188;-66
2024/03/03 01:30:05;;;;;;;19.17;12.82;;;;;;;;;;10378430;28;20083;-67
2024/03/03 01:35:04;;;;;;;17.10;11.48;;;;;;;;;;10368081;28;20086;-67
2024/03/03 01:40:04;;;;;;;15.07;12.48;;;;;;;;;;10380288;28;20087;-66
2024/03/03 01:45:03;;;;;;;19.52;13.60;;;;;;;;;;10379648;28;20067;-67
2024/03/03 01:50:02;;;;;;;17.33;13.30;;;;;;;;;;10365339;28;20055;-67
2024/03/03 01:55:00;;;;;;;17.70;12.98;;;;;;;;;;10360329;28;20075;-66
2024/03/03 02:00:01;;;;;;;17.83;13.55;;;;;;;;;;10370905;28;20094;-67
2024/03/03 02:05:08;;;;;;;23.35;15.82;;;;;;;;;;10377113;28;20532;-66
2024/03/03 02:10:09;;;;;;;21.60;13.75;;;;;;;;;;10355164;28;20067;-66
2024/03/03 02:15:09;;;;;;;17.98;12.68;;;;;;;;;;10377157;28;20459;-67
2024/03/03 02:20:09;;;;;;;17.50;13.05;;;;;;;;;;10360109;28;20084;-65
2024/03/03 02:25:09;;;;;;;19.02;12.70;;;;;;;;;;10366983;28;20086;-64
2024/03/03 02:30:08;;;;;;;15.85;12.45;;;;;;;;;;10366583;28;20509;-66
2024/03/03 02:35:06;;;;;;;19.65;12.30;;;;;;;;;;10358201;28;20083;-66
2024/03/03 02:40:06;;;;;;;21.23;12.38;;;;;;;;;;10375378;28;20071;-65
2024/03/03 02:45:07;;;;;;;20.73;12.68;;;;;;;;;;10377977;28;20044;-66
2024/03/03 02:50:06;;;;;;;18.73;14.48;;;;;;;;;;10371438;28;20071;-66
2024/03/03 02:55:05;;;;;;;19.38;14.43;;;;;;;;;;10375489;28;20083;-66
2024/03/03 03:00:03;;;;;;;23.08;14.05;;;;;;;;;;10357113;28;20496;-65
2024/03/03 03:05:03;;;;;;;17.67;12.32;;;;;;;;;;10356397;28;20059;-67
2024/03/03 03:10:02;;;;;;;17.40;12.35;;;;;;;;;;10375270;28;20090;-65
2024/03/03 03:15:00;;;;;;;15.65;12.55;;;;;;;;;;10371635;28;20141;-66
2024/03/03 03:19:59;;;;;;;20.35;13.18;;;;;;;;;;10364686;28;20085;-66
2024/03/03 03:24:58;;;;;;;17.52;12.85;;;;;;;;;;10375337;28;20082;-66
2024/03/03 03:29:57;;;;;;;15.95;13.23;;;;;;;;;;10375945;28;20071;-65
2024/03/03 03:34:55;;;;;;;21.10;12.95;;;;;;;;;;10372656;28;20071;-66
2024/03/03 03:39:53;;;;;;;21.23;12.50;;;;;;;;;;10356190;28;20083;-66
2024/03/03 03:44:53;;;;;;;17.67;11.45;;;;;;;;;;10373506;28;20501;-66
2024/03/03 03:49:51;;;;;;;18.63;12.38;;;;;;;;;;10367640;28;20092;-66
2024/03/03 03:54:49;;;;;;;20.67;13.25;;;;;;;;;;10365139;28;20044;-66
2024/03/03 03:59:48;;;;;;;16.85;13.18;;;;;;;;;;10372181;28;20094;-66
2024/03/03 04:04:47;;;;;;;18.30;13.13;;;;;;;;;;10369521;28;20055;-67
2024/03/03 04:09:46;;;;;;;21.98;15.68;;;;;;;;;;10373158;28;20438;-65
2024/03/03 04:14:44;;;;;;;24.73;14.13;;;;;;;;;;10373036;28;20068;-66
2024/03/03 04:19:42;;;;;;;21.80;15.73;;;;;;;;;;10371356;28;20087;-65
2024/03/03 04:24:42;;;;;;;25.08;14.52;;;;;;;;;;10352170;28;20055;-66
2024/03/03 04:29:40;;;;;;;21.25;14.32;;;;;;;;;;10370223;28;20074;-67
2024/03/03 04:34:39;;;;;;;26.42;17.85;;;;;;;;;;10374517;28;20071;-66
2024/03/03 04:39:38;;;;;;;19.98;14.43;;;;;;;;;;10372261;28;20631;-66
2024/03/03 04:44:38;;;;;;;20.58;15.43;;;;;;;;;;10371622;28;20074;-65
2024/03/03 04:49:38;;;;;;;23.45;15.10;;;;;;;;;;10373811;28;20539;-65
2024/03/03 04:54:37;;;;;;;21.17;14.55;;;;;;;;;;10370617;28;20067;-65
2024/03/03 04:59:36;;;;;;;18.33;14.15;;;;;;;;;;10370981;28;20095;-65
2024/03/03 05:04:36;;;;;;;16.55;13.90;;;;;;;;;;10383966;28;20514;-66
2024/03/03 05:09:34;;;;;;;25.90;14.68;;;;;;;;;;10377217;28;20055;-66
2024/03/03 05:14:32;;;;;;;19.85;14.35;;;;;;;;;;10395961;28;20074;-65
2024/03/03 05:19:30;;;;;;;43.53;30.30;;;;;;;;;;10395768;28;20089;-66
2024/03/03 05:24:30;;;;;;;32.28;23.30;;;;;;;;;;10395742;28;20066;-66
2024/03/03 05:29:29;;;;;;;29.20;21.35;;;;;;;;;;10395129;28;20492;-66
2024/03/03 05:34:27;;;;;;;26.15;18.40;;;;;;;;;;10395853;28;20071;-67
2024/03/03 05:39:27;;;;;;;39.88;27.35;;;;;;;;;;10379831;28;20492;-67
2024/03/03 05:44:26;;;;;;;29.55;23.45;;;;;;;;;;10402784;28;20059;-66
2024/03/03 05:49:25;;;;;;;28.58;21.63;;;;;;;;;;10403163;28;20668;-67
2024/03/03 05:54:23;;;;;;;22.52;17.52;;;;;;;;;;10383995;28;20058;-66
2024/03/03 05:59:21;;;;;;;29.15;19.63;;;;;;;;;;10401407;28;20086;-67
2024/03/03 06:04:21;;;;;;;27.33;14.00;;;;;;;;;;10401935;28;20075;-67
2024/03/03 06:09:19;;;;;;;23.42;17.15;;;;;;;;;;10389331;28;20070;-65
2024/03/03 06:14:17;;;;;;;40.58;25.95;;;;;;;;;;10401218;28;20075;-65
2024/03/03 06:19:16;;;;;;;27.65;19.15;;;;;;;;;;10399668;28;20067;-65
2024/03/03 06:24:15;;;;;;;28.02;18.45;;;;;;;;;;10396082;28;20071;-66
2024/03/03 06:29:14;;;;;;;32.33;22.20;;;;;;;;;;10400259;28;20079;-65
2024/03/03 06:34:12;;;;;;;26.42;18.67;;;;;;;;;;10400827;28;20067;-66
2024/03/03 06:39:12;;;;;;;37.42;28.70;;;;;;;;;;10381942;28;20040;-66
2024/03/03 06:44:16;;;;;;;44.08;32.10;;;;;;;;;;10400587;28;20063;-66
2024/03/03 06:49:15;;;;;;;30.23;19.00;;;;;;;;;;10399697;28;20062;-66
2024/03/03 06:54:13;;;;;;;26.83;19.38;;;;;;;;;;10390225;28;20102;-67
2024/03/03 06:59:13;;;;;;;20.08;14.90;;;;;;;;;;10382177;28;20075;-66
2024/03/03 07:04:20;;;;;;;25.63;17.70;;;;;;;;;;10399266;28;20496;-67
2024/03/03 07:09:22;;;;;;;25.63;19.10;;;;;;;;;;10399550;28;20078;-65
2024/03/03 07:14:23;;;;;;;22.08;16.58;;;;;;;;;;10399247;28;20048;-65
2024/03/03 07:19:21;;;;;;;20.95;16.05;;;;;;;;;;10399676;28;20074;-65
2024/03/03 07:24:20;;;;;;;22.90;15.25;;;;;;;;;;10386053;28;20081;-66
2024/03/03 07:29:18;;;;;;;27.67;20.20;;;;;;;;;;10395838;28;20051;-67
2024/03/03 07:34:18;;;;;;;22.15;16.33;;;;;;;;;;10397191;28;20066;-66
2024/03/03 07:39:17;;;;;;;23.05;16.42;;;;;;;;;;10398773;28;20517;-66
2024/03/03 07:44:15;;;;;;;19.88;15.98;;;;;;;;;;10397474;28;20075;-67
2024/03/03 07:49:13;;;;;;;23.38;15.40;;;;;;;;;;10394686;28;20788;-67
2024/03/03 07:54:13;;;;;;;25.10;14.70;;;;;;;;;;10394436;28;20067;-64
2024/03/03 07:59:12;;;;;;;25.45;15.88;;;;;;;;;;10393725;28;20078;-66
2024/03/03 08:04:12;;;;;;;28.80;15.65;;;;;;;;;;10383518;28;20072;-66
2024/03/03 08:09:13;;;;;;;19.73;15.60;;;;;;;;;;10396652;28;20530;-65
2024/03/03 08:14:11;;;;;;;23.83;18.58;;;;;;;;;;10396243;28;20078;-67
2024/03/03 08:19:09;;;;;;;25.63;18.75;;;;;;;;;;10397380;28;20067;-67
2024/03/03 08:24:07;;;;;;;26.75;18.65;;;;;;;;;;10396346;28;20305;-66
2024/03/03 08:29:08;;;;;;;27.80;21.70;;;;;;;;;;10396735;28;20492;-67
2024/03/03 08:34:06;;;;;;;26.05;19.65;;;;;;;;;;10396406;28;20044;-66
2024/03/03 08:39:04;;;;;;;50.50;33.15;;;;;;;;;;10396641;28;20072;-66
2024/03/03 08:44:02;;;;;;;35.22;27.40;;;;;;;;;;10396109;28;20071;-66
2024/03/03 08:49:02;;;;;;;46.50;31.10;;;;;;;;;;10395577;28;20109;-66
2024/03/03 08:54:00;;;;;;;27.98;22.27;;;;;;;;;;10387310;28;20080;-67
2024/03/03 08:58:59;;;;;;;32.22;22.65;;;;;;;;;;10389860;28;20063;-67
2024/03/03 09:03:57;;;;;;;25.73;20.27;;;;;;;;;;10395406;28;20071;-66
2024/03/03 09:08:57;;;;;;;35.88;28.73;;;;;;;;;;10394602;28;20106;-65
2024/03/03 09:13:55;;;;;;;28.10;20.70;;;;;;;;;;10396862;28;20071;-66
2024/03/03 09:18:54;;;;;;;26.80;17.50;;;;;;;;;;10403427;28;20071;-66
2024/03/03 09:23:53;;;;;;;27.23;19.73;;;;;;;;;;10403699;28;20079;-66
2024/03/03 09:28:52;;;;;;;27.58;20.13;;;;;;;;;;10403278;28;20071;-66
2024/03/03 09:33:51;;;;;;;25.63;18.38;;;;;;;;;;10403162;28;20044;-66
2024/03/03 09:38:49;;;;;;;28.58;19.45;;;;;;;;;;10403046;28;20071;-66
2024/03/03 09:43:50;;;;;;;29.67;21.05;;;;;;;;;;10402584;28;20094;-65
2024/03/03 09:48:52;;;;;;;38.67;21.02;;;;;;;;;;10402657;28;20070;-66
2024/03/03 09:53:51;;;;;;;23.55;16.58;;;;;;;;;;10401549;28;20079;-65
2024/03/03 09:58:49;;;;;;;22.90;17.05;;;;;;;;;;10394642;28;20067;-67
2024/03/03 10:03:49;;;;;;;22.35;16.58;;;;;;;;;;10385743;28;20086;-65
2024/03/03 10:08:49;;;;;;;19.80;16.83;;;;;;;;;;10379624;28;20047;-66
2024/03/03 10:14:03;;;;;;;23.77;16.20;;;;;;;;;;10496670;27;20388;-65
2024/03/03 10:19:02;;;;;;;29.30;20.25;;;;;;;;;;10471626;27;20084;-67
2024/03/03 10:24:20;;;;;;;20.15;15.85;;;;;;;;;;10463340;27;20089;-67
2024/03/03 10:29:21;;;;;;;22.55;15.68;;;;;;;;;;10446534;27;20093;-65
2024/03/03 10:34:20;;;;;;;22.65;14.55;;;;;;;;;;10451845;27;20062;-66
2024/03/03 10:39:19;;;;;;;20.20;15.27;;;;;;;;;;10469337;27;20065;-66
2024/03/03 10:44:17;;;;;;;20.85;15.52;;;;;;;;;;10468839;27;20066;-67
2024/03/03 10:49:18;;;;;;;18.45;15.20;;;;;;;;;;10467878;27;20082;-66
2024/03/03 10:54:17;;;;;;;20.38;14.90;;;;;;;;;;10473488;27;20062;-67
2024/03/03 10:59:16;;;;;;;32.97;21.45;;;;;;;;;;10472821;27;20041;-66
2024/03/03 11:04:15;;;;;;;20.35;15.55;;;;;;;;;;10471873;27;20074;-67
2024/03/03 11:09:15;;;;;;;16.13;12.63;;;;;;;;;;10471610;27;20072;-68
2024/03/03 11:14:14;;;;;;;19.38;13.63;;;;;;;;;;10458877;27;20067;-65
2024/03/03 11:19:13;;;;;;;16.40;13.32;;;;;;;;;;10471841;27;20063;-65
2024/03/03 11:24:15;;;;;;;17.67;13.18;;;;;;;;;;10450275;27;20059;-65
2024/03/03 11:29:16;;;;;;;21.42;14.25;;;;;;;;;;10443207;27;20457;-66
2024/03/03 11:34:15;;;;;;;17.02;13.60;;;;;;;;;;10443304;27;20081;-66
2024/03/03 11:39:15;;;;;;;16.95;12.38;;;;;;;;;;10442955;27;20415;-66
2024/03/03 11:44:28;;;;;;;19.33;13.02;;;;;;;;;;10442044;27;20071;-66
2024/03/03 11:49:30;;;;;;;19.13;12.20;;;;;;;;;;10425982;27;20087;-66
2024/03/03 11:54:30;;;;;;;18.67;13.32;;;;;;;;;;10423873;27;20515;-66
2024/03/03 11:59:31;;;;;;;19.02;12.40;;;;;;;;;;10442066;27;20069;-66
2024/03/03 12:04:31;;;;;;;21.52;15.82;;;;;;;;;;10441413;27;20073;-66
2024/03/03 12:09:29;;;;;;;15.32;12.43;;;;;;;;;;10441566;27;20063;-65
2024/03/03 12:14:28;;;;;;;19.67;14.27;;;;;;;;;;10439973;27;20502;-66
2024/03/03 12:19:26;;;;;;;21.88;12.55;;;;;;;;;;10441429;27;20067;-67
2024/03/03 12:24:26;;;;;;;17.55;12.68;;;;;;;;;;10439588;27;20397;-67
2024/03/03 12:29:24;;;;;;;16.83;12.65;;;;;;;;;;10441179;27;20062;-68
2024/03/03 12:34:22;;;;;;;15.68;13.20;;;;;;;;;;10421076;27;20083;-67
2024/03/03 12:39:21;;;;;;;17.05;13.20;;;;;;;;;;10440518;27;20073;-66
2024/03/03 12:44:20;;;;;;;18.55;13.05;;;;;;;;;;10440382;27;20059;-67
2024/03/03 12:49:18;;;;;;;15.55;12.07;;;;;;;;;;10440062;27;20067;-66
2024/03/03 12:54:17;;;;;;;19.65;13.43;;;;;;;;;;10439590;27;20175;-66
2024/03/03 12:59:15;;;;;;;17.52;11.68;;;;;;;;;;10440061;27;20043;-65
2024/03/03 13:04:15;;;;;;;13.38;9.73;;;;;;;;;;10438846;27;20075;-66
2024/03/03 13:09:13;;;;;;;20.40;11.65;;;;;;;;;;10438963;27;20531;-66
2024/03/03 13:14:12;;;;;;;20.33;13.35;;;;;;;;;;10439023;27;20079;-67
2024/03/03 13:19:10;;;;;;;14.63;10.93;;;;;;;;;;10420361;27;20047;-66
2024/03/03 13:24:18;;;;;;;14.43;10.57;;;;;;;;;;10437801;27;20519;-66
2024/03/03 13:29:17;;;;;;;25.15;12.23;;;;;;;;;;10438119;27;20067;-66
2024/03/03 13:34:16;;;;;;;13.70;11.07;;;;;;;;;;10437318;27;20074;-67
2024/03/03 13:39:15;;;;;;;15.98;12.50;;;;;;;;;;10437282;27;20522;-66
2024/03/03 13:44:14;;;;;;;16.75;10.88;;;;;;;;;;10457655;27;20066;-64
2024/03/03 13:49:13;;;;;;;13.43;11.30;;;;;;;;;;10437454;27;20070;-65
2024/03/03 13:54:13;;;;;;;15.13;10.25;;;;;;;;;;10443715;27;20069;-65
2024/03/03 13:59:12;;;;;;;10.98;9.52;;;;;;;;;;10444515;27;20047;-65
2024/03/03 14:04:11;;;;;;;16.70;11.98;;;;;;;;;;10441568;27;20516;-65
2024/03/03 14:09:09;;;;;;;16.23;11.55;;;;;;;;;;10450696;27;20522;-65
2024/03/03 14:14:08;;;;;;;21.25;11.63;;;;;;;;;;10427917;27;20480;-65
2024/03/03 14:19:07;;;;;;;15.98;10.43;;;;;;;;;;10438041;27;20582;-65
2024/03/03 14:24:06;;;;;;;18.25;12.32;;;;;;;;;;10452650;27;20093;-64
2024/03/03 14:29:04;;;;;;;13.85;10.45;;;;;;;;;;10449358;27;20128;-64
2024/03/03 14:34:02;;;;;;;15.43;11.32;;;;;;;;;;10449714;27;20066;-63
2024/03/03 14:39:02;;;;;;;15.07;11.63;;;;;;;;;;10437606;27;20047;-65
2024/03/03 14:44:00;;;;;;;16.27;11.60;;;;;;;;;;10436934;27;20071;-65
2024/03/03 14:48:59;;;;;;;22.08;16.48;;;;;;;;;;10436829;27;20043;-65
2024/03/03 14:53:58;;;;;;;15.57;12.13;;;;;;;;;;10436495;27;20079;-64
2024/03/03 14:58:57;;;;;;;25.48;13.45;;;;;;;;;;10441897;27;20480;-65
2024/03/03 15:03:55;;;;;;;17.52;12.15;;;;;;;;;;10454592;27;20071;-65
2024/03/03 15:08:53;;;;;;;97.13;75.28;;;;;;;;;;10443688;27;20079;-64
2024/03/03 15:13:52;;;;;;;25.52;19.45;;;;;;;;;;10451544;27;20075;-64
2024/03/03 15:18:51;;;;;;;19.35;13.75;;;;;;;;;;10455945;27;20421;-65
2024/03/03 15:23:49;;;;;;;19.75;14.30;;;;;;;;;;10444268;27;20075;-65
2024/03/03 15:28:48;;;;;;;19.20;13.90;;;;;;;;;;10431379;27;20059;-65
2024/03/03 15:33:46;;;;;;;50.97;35.42;;;;;;;;;;10450477;27;20502;-65
2024/03/03 15:38:45;;;;;;;21.52;15.40;;;;;;;;;;10458220;27;20594;-64
2024/03/03 15:43:45;;;;;;;19.27;14.35;;;;;;;;;;10473001;27;20074;-65
2024/03/03 15:48:43;;;;;;;33.25;23.27;;;;;;;;;;10444050;27;20543;-65
2024/03/03 15:53:41;;;;;;;28.48;22.35;;;;;;;;;;10441719;27;20082;-64
2024/03/03 15:58:41;;;;;;;22.20;17.90;;;;;;;;;;10449691;27;20091;-65
2024/03/03 16:03:41;;;;;;;22.15;17.00;;;;;;;;;;10447439;27;20089;-64
2024/03/03 16:08:40;;;;;;;67.78;52.70;;;;;;;;;;10449592;27;20133;-65
2024/03/03 16:13:38;;;;;;;53.85;43.03;;;;;;;;;;10441505;27;20303;-63
2024/03/03 16:18:38;;;;;;;48.50;31.23;;;;;;;;;;10442580;27;20408;-64
2024/03/03 16:23:36;;;;;;;51.22;36.25;;;;;;;;;;10442661;27;20071;-65
2024/03/03 16:28:35;;;;;;;54.83;37.17;;;;;;;;;;10439695;27;20089;-63
2024/03/03 16:33:34;;;;;;;60.60;39.83;;;;;;;;;;10450911;27;20078;-63
2024/03/03 16:38:34;;;;;;;50.83;42.92;;;;;;;;;;10428466;27;20078;-64
2024/03/03 16:43:32;;;;;;;52.78;38.47;;;;;;;;;;10455102;27;20550;-65
2024/03/03 16:48:32;;;;;;;53.50;40.22;;;;;;;;;;10447953;27;20507;-63
2024/03/03 16:53:30;;;;;;;36.15;26.73;;;;;;;;;;10440993;27;20465;-64
2024/03/03 16:58:30;;;;;;;26.60;19.25;;;;;;;;;;10420578;27;20046;-64
2024/03/03 17:03:30;;;;;;;28.98;20.63;;;;;;;;;;10450173;27;20066;-65
2024/03/03 17:08:28;;;;;;;31.85;18.05;;;;;;;;;;10456106;27;20063;-65
2024/03/03 17:13:29;;;;;;;25.73;18.42;;;;;;;;;;10435269;27;20090;-63
2024/03/03 17:18:29;;;;;;;26.40;18.58;;;;;;;;;;10438088;27;20070;-65
2024/03/03 17:23:27;;;;;;;31.63;23.30;;;;;;;;;;10429197;27;20559;-64
2024/03/03 17:28:25;;;;;;;22.52;17.38;;;;;;;;;;10436011;27;20087;-64
2024/03/03 17:33:24;;;;;;;22.58;17.92;;;;;;;;;;10425627;27;20086;-65
2024/03/03 17:38:23;;;;;;;26.35;18.55;;;;;;;;;;10450809;27;20074;-65
2024/03/03 17:43:22;;;;;;;37.60;26.58;;;;;;;;;;10438062;27;20674;-63
2024/03/03 17:48:20;;;;;;;26.27;16.38;;;;;;;;;;10437388;27;20554;-64
2024/03/03 17:53:20;;;;;;;21.73;15.82;;;;;;;;;;10438107;27;20066;-64
2024/03/03 17:58:20;;;;;;;30.30;18.55;;;;;;;;;;10439358;27;20104;-64
2024/03/03 18:03:18;;;;;;;27.98;19.08;;;;;;;;;;10423429;27;20066;-65
2024/03/03 18:08:18;;;;;;;29.75;22.52;;;;;;;;;;10437867;27;20059;-65
2024/03/03 18:13:17;;;;;;;24.70;17.02;;;;;;;;;;10443303;27;20086;-64
2024/03/03 18:18:17;;;;;;;24.67;17.50;;;;;;;;;;10439757;27;20059;-63
2024/03/03 18:23:15;;;;;;;24.23;18.92;;;;;;;;;;10434048;27;20067;-64
2024/03/03 18:28:13;;;;;;;27.83;17.52;;;;;;;;;;10451819;27;20456;-64
2024/03/03 18:33:12;;;;;;;25.38;20.00;;;;;;;;;;10439102;27;20071;-64
2024/03/03 18:38:12;;;;;;;24.15;18.38;;;;;;;;;;10453129;27;20058;-64
2024/03/03 18:43:10;;;;;;;27.52;19.35;;;;;;;;;;10441964;27;20066;-64
2024/03/03 18:48:08;;;;;;;24.75;18.63;;;;;;;;;;10454705;27;20062;-64
2024/03/03 18:53:06;;;;;;;27.77;19.05;;;;;;;;;;10461424;27;20517;-64
2024/03/03 18:58:06;;;;;;;27.58;18.98;;;;;;;;;;10471818;27;20066;-63
2024/03/03 19:03:05;;;;;;;32.97;25.50;;;;;;;;;;10449617;27;20059;-63
2024/03/03 19:08:04;;;;;;;30.38;20.38;;;;;;;;;;10460464;27;20066;-64
2024/03/03 19:13:04;;;;;;;23.42;17.83;;;;;;;;;;10445794;27;20079;-63
2024/03/03 19:18:04;;;;;;;22.13;17.08;;;;;;;;;;10447947;27;20075;-64
2024/03/03 19:23:04;;;;;;;29.80;21.25;;;;;;;;;;10423110;27;20040;-63
2024/03/03 19:28:03;;;;;;;32.50;22.70;;;;;;;;;;10445081;27;20067;-64
2024/03/03 19:33:03;;;;;;;22.80;18.10;;;;;;;;;;10452567;27;20128;-62
2024/03/03 19:38:03;;;;;;;25.27;17.35;;;;;;;;;;10463855;27;20066;-63
2024/03/03 19:43:01;;;;;;;24.30;16.67;;;;;;;;;;10440871;27;20081;-63
2024/03/03 19:48:01;;;;;;;21.80;16.85;;;;;;;;;;10433038;27;20058;-62
2024/03/03 19:52:59;;;;;;;31.23;18.17;;;;;;;;;;10447369;27;20062;-64
2024/03/03 19:57:59;;;;;;;25.38;18.77;;;;;;;;;;10454732;27;20081;-64
2024/03/03 20:02:57;;;;;;;21.30;16.23;;;;;;;;;;10427452;27;20138;-64
2024/03/03 20:07:55;;;;;;;23.20;14.38;;;;;;;;;;10431853;27;20150;-64
2024/03/03 20:12:55;;;;;;;23.60;14.88;;;;;;;;;;10445487;27;20074;-63
2024/03/03 20:17:55;;;;;;;23.35;14.95;;;;;;;;;;10443529;27;20059;-64
2024/03/03 20:22:54;;;;;;;15.43;12.43;;;;;;;;;;10437706;27;20070;-64
2024/03/03 20:27:52;;;;;;;19.90;12.10;;;;;;;;;;10450159;27;20055;-63
2024/03/03 20:32:51;;;;;;;15.80;13.15;;;;;;;;;;10445417;27;20067;-63
2024/03/03 20:37:50;;;;;;;19.35;12.98;;;;;;;;;;10432893;27;20063;-65
2024/03/03 20:42:49;;;;;;;17.65;13.23;;;;;;;;;;10434265;27;20062;-64
2024/03/03 20:47:47;;;;;;;17.58;13.57;;;;;;;;;;10444255;27;20067;-64
2024/03/03 20:52:45;;;;;;;19.83;12.93;;;;;;;;;;10437185;27;20487;-65
2024/03/03 20:57:45;;;;;;;17.10;13.32;;;;;;;;;;10448672;27;20078;-64
2024/03/03 21:02:43;;;;;;;24.90;16.50;;;;;;;;;;10438326;27;20070;-64
2024/03/03 21:07:41;;;;;;;21.35;15.25;;;;;;;;;;10445131;27;20066;-64
2024/03/03 21:12:41;;;;;;;23.17;19.70;;;;;;;;;;10431605;27;20098;-63
2024/03/03 21:17:41;;;;;;;35.97;22.25;;;;;;;;;;10425277;27;20154;-63
2024/03/03 21:22:41;;;;;;;102.15;84.45;;;;;;;;;;10435055;27;20066;-63
2024/03/03 21:27:39;;;;;;;29.95;21.27;;;;;;;;;;10436840;27;20074;-64
2024/03/03 21:32:37;;;;;;;41.55;36.55;;;;;;;;;;10433023;27;20073;-63
2024/03/03 21:37:37;;;;;;;57.30;45.08;;;;;;;;;;10436107;27;20463;-65
2024/03/03 21:42:36;;;;;;;22.95;14.60;;;;;;;;;;10435067;27;20062;-64
2024/03/03 21:47:34;;;;;;;19.15;14.55;;;;;;;;;;10433298;27;20503;-65
2024/03/03 21:52:32;;;;;;;19.42;14.05;;;;;;;;;;10425521;27;20067;-65
2024/03/03 21:57:32;;;;;;;16.15;14.35;;;;;;;;;;10430128;27;20810;-66
2024/03/03 22:02:30;;;;;;;20.08;14.30;;;;;;;;;;10429015;27;20130;-65
2024/03/03 22:07:28;;;;;;;20.23;14.43;;;;;;;;;;10431336;27;20520;-66
2024/03/03 22:12:27;;;;;;;18.92;14.68;;;;;;;;;;10435424;27;20067;-64
2024/03/03 22:17:27;;;;;;;24.52;19.20;;;;;;;;;;10428202;27;20074;-64
2024/03/03 22:22:25;;;;;;;23.85;15.18;;;;;;;;;;10429572;27;20075;-64
2024/03/03 22:27:24;;;;;;;21.08;15.63;;;;;;;;;;10436906;27;20074;-64
2024/03/03 22:32:23;;;;;;;22.15;14.10;;;;;;;;;;10429247;27;20063;-64
2024/03/03 22:37:25;;;;;;;19.48;12.45;;;;;;;;;;10439325;27;20074;-65
2024/03/03 22:42:24;;;;;;;21.33;16.08;;;;;;;;;;10411081;27;20508;-65
2024/03/03 22:47:23;;;;;;;38.17;25.88;;;;;;;;;;10416821;27;20067;-65
2024/03/03 22:52:21;;;;;;;37.83;25.67;;;;;;;;;;10419955;27;20532;-65
2024/03/03 22:57:21;;;;;;;38.30;26.20;;;;;;;;;;10410520;27;20067;-64
2024/03/03 23:02:19;;;;;;;48.95;31.95;;;;;;;;;;10394528;27;20070;-63
2024/03/03 23:07:18;;;;;;;40.83;28.85;;;;;;;;;;10402968;27;20074;-64
2024/03/03 23:12:17;;;;;;;50.25;30.63;;;;;;;;;;10409526;27;20063;-65
2024/03/03 23:17:17;;;;;;;47.75;29.92;;;;;;;;;;10405558;27;20559;-64
2024/03/03 23:22:15;;;;;;;30.42;22.40;;;;;;;;;;10410487;27;20063;-63
2024/03/03 23:27:13;;;;;;;30.25;22.88;;;;;;;;;;10414547;27;20071;-63
2024/03/03 23:32:11;;;;;;;29.10;21.42;;;;;;;;;;10421069;27;20074;-64
2024/03/03 23:37:13;;;;;;;24.25;16.98;;;;;;;;;;10422757;27;20082;-63
2024/03/03 23:42:12;;;;;;;35.13;23.25;;;;;;;;;;10420681;27;20503;-64
2024/03/03 23:47:11;;;;;;;27.23;18.80;;;;;;;;;;10427254;27;20062;-64
2024/03/03 23:52:09;;;;;;;30.83;20.95;;;;;;;;;;10417938;27;20059;-64
2024/03/03 23:57:09;;;;;;;34.65;23.25;;;;;;;;;;10418221;27;20555;-64
